createdAt,value
2023-04-05T00:01:53.758Z,59.01
2023-04-05T00:04:20.955Z,58.82
2023-04-05T00:06:52.874Z,58.67
2023-04-05T00:09:20.817Z,59.57
2023-04-05T00:11:47.893Z,60.11
2023-04-05T00:14:14.464Z,59.97
2023-04-05T00:16:41.746Z,60.67
2023-04-05T00:19:08.902Z,60.73
2023-04-05T00:21:35.395Z,60.76
2023-04-05T00:24:01.857Z,61.04
2023-04-05T00:26:28.393Z,61.80
2023-04-05T00:28:54.883Z,62.90
2023-04-05T00:31:21.498Z,62.49
2023-04-05T00:33:47.942Z,62.42
2023-04-05T00:36:19.849Z,62.48
2023-04-05T00:38:48.112Z,62.10
2023-04-05T00:41:14.884Z,63.26
2023-04-05T00:43:41.823Z,64.86
2023-04-05T00:46:08.955Z,63.30
2023-04-05T00:48:36.249Z,63.26
2023-04-05T00:51:03.077Z,63.60
2023-04-05T00:53:32.201Z,64.72
2023-04-05T00:55:58.801Z,65.01
2023-04-05T00:58:25.409Z,64.88
2023-04-05T01:01:01.693Z,64.64
2023-04-05T01:03:31.794Z,64.27
2023-04-05T01:06:13.386Z,64.22
2023-04-05T01:08:52.361Z,63.78
2023-04-05T01:11:19.170Z,63.87
2023-04-05T01:13:46.750Z,65.33
2023-04-05T01:16:14.213Z,64.46
2023-04-05T01:18:41.220Z,65.80
2023-04-05T01:21:39.669Z,65.77
2023-04-05T01:24:50.815Z,66.07
2023-04-05T01:27:22.692Z,64.26
2023-04-05T01:29:58.080Z,65.05
2023-04-05T01:32:59.234Z,64.37
2023-04-05T01:35:47.477Z,64.56
2023-04-05T01:38:18.375Z,64.10
2023-04-05T01:40:45.333Z,64.33
2023-04-05T01:43:18.488Z,63.73
2023-04-05T01:45:46.209Z,66.15
2023-04-05T01:48:13.887Z,65.30
2023-04-05T01:50:40.824Z,64.42
2023-04-05T01:53:08.455Z,65.59
2023-04-05T01:55:35.050Z,65.04
2023-04-05T01:58:01.633Z,64.67
2023-04-05T02:00:28.317Z,65.00
2023-04-05T02:02:54.844Z,65.05
2023-04-05T02:05:21.313Z,66.54
2023-04-05T02:07:47.860Z,66.17
2023-04-05T02:10:14.845Z,66.77
2023-04-05T02:12:41.368Z,67.66
2023-04-05T02:15:08.548Z,67.09
2023-04-05T02:17:39.048Z,66.94
2023-04-05T02:20:12.477Z,66.63
2023-04-05T02:22:40.126Z,65.80
2023-04-05T02:25:09.174Z,67.35
2023-04-05T02:27:35.736Z,66.99
2023-04-05T02:30:02.815Z,66.82
2023-04-05T02:32:29.290Z,66.70
2023-04-05T02:34:56.069Z,67.64
2023-04-05T02:37:22.683Z,67.21
2023-04-05T02:39:49.252Z,66.86
2023-04-05T02:42:15.968Z,66.33
2023-04-05T02:44:42.645Z,66.59
2023-04-05T02:47:09.131Z,66.66
2023-04-05T02:49:35.761Z,66.66
2023-04-05T02:52:02.219Z,65.63
2023-04-05T02:54:28.710Z,67.88
2023-04-05T02:56:57.734Z,66.38
2023-04-05T02:59:24.484Z,66.04
2023-04-05T03:01:51.020Z,67.30
2023-04-05T03:04:17.545Z,67.06
2023-04-05T03:06:46.432Z,67.34
2023-04-05T03:09:14.455Z,68.30
2023-04-05T03:11:40.992Z,67.71
2023-04-05T03:14:07.450Z,68.53
2023-04-05T03:16:34.503Z,68.19
2023-04-05T03:19:02.358Z,67.96
2023-04-05T03:21:30.132Z,67.73
2023-04-05T03:23:56.720Z,67.54
2023-04-05T03:26:23.386Z,67.62
2023-04-05T03:28:50.231Z,67.85
2023-04-05T03:31:18.348Z,68.36
2023-04-05T03:33:46.581Z,70.31
2023-04-05T03:36:16.570Z,69.71
2023-04-05T03:38:45.512Z,71.10
2023-04-05T03:41:12.130Z,70.73
2023-04-05T03:43:38.563Z,71.01
2023-04-05T03:46:05.105Z,71.11
2023-04-05T03:48:31.661Z,72.14
2023-04-05T03:50:58.563Z,72.37
2023-04-05T03:53:25.042Z,72.13
2023-04-05T03:55:54.211Z,72.62
2023-04-05T03:58:20.808Z,72.45
2023-04-05T04:00:47.648Z,72.17
2023-04-05T04:03:15.214Z,73.51
2023-04-05T04:05:42.275Z,73.04
2023-04-05T04:08:09.792Z,74.37
2023-04-05T04:10:36.601Z,74.26
2023-04-05T04:13:03.120Z,73.26
2023-04-05T04:15:29.626Z,73.33
2023-04-05T04:17:56.771Z,72.96
2023-04-05T04:20:23.438Z,72.66
2023-04-05T04:22:50.170Z,73.38
2023-04-05T04:25:18.973Z,73.79
2023-04-05T04:27:46.695Z,73.29
2023-04-05T04:30:15.042Z,72.39
2023-04-05T04:32:52.059Z,73.32
2023-04-05T04:35:29.289Z,74.08
2023-04-05T04:38:01.168Z,73.82
2023-04-05T04:40:41.136Z,74.74
2023-04-05T04:43:19.095Z,73.57
2023-04-05T04:45:50.002Z,73.08
2023-04-05T04:48:16.748Z,72.52
2023-04-05T04:50:44.260Z,72.51
2023-04-05T04:53:12.075Z,72.77
2023-04-05T04:55:42.356Z,72.76
2023-04-05T04:58:11.546Z,72.01
2023-04-05T05:00:44.114Z,71.16
2023-04-05T05:03:11.870Z,71.80
2023-04-05T05:05:45.381Z,71.82
2023-04-05T05:08:11.904Z,72.58
2023-04-05T05:10:38.709Z,73.11
2023-04-05T05:13:05.579Z,74.73
2023-04-05T05:15:32.198Z,73.58
2023-04-05T05:17:59.187Z,73.68
2023-04-05T05:20:28.681Z,73.43
2023-04-05T05:22:55.837Z,71.91
2023-04-05T05:25:22.490Z,72.47
2023-04-05T05:27:50.999Z,71.84
2023-04-05T05:30:18.832Z,71.55
2023-04-05T05:32:45.505Z,70.99
2023-04-05T05:35:12.117Z,70.45
2023-04-05T05:37:39.009Z,71.29
2023-04-05T05:40:06.193Z,71.60
2023-04-05T05:42:33.886Z,70.03
2023-04-05T05:45:04.873Z,69.47
2023-04-05T05:47:31.917Z,70.65
2023-04-05T05:49:58.550Z,68.95
2023-04-05T05:52:25.083Z,68.00
2023-04-05T05:54:51.583Z,67.34
2023-04-05T05:57:18.077Z,66.31
2023-04-05T05:59:44.613Z,65.56
2023-04-05T06:02:11.442Z,66.18
2023-04-05T06:04:38.032Z,63.36
2023-04-05T06:07:04.609Z,63.58
2023-04-05T06:09:33.965Z,63.35
2023-04-05T06:12:01.145Z,61.99
2023-04-05T06:14:29.742Z,61.21
2023-04-05T06:16:56.482Z,59.58
2023-04-05T06:19:23.111Z,59.07
2023-04-05T06:21:49.592Z,58.15
2023-04-05T06:24:16.056Z,57.72
2023-04-05T06:26:42.542Z,55.50
2023-04-05T06:29:09.075Z,56.02
2023-04-05T06:31:36.739Z,54.95
2023-04-05T06:34:05.473Z,54.93
2023-04-05T06:36:34.224Z,54.89
2023-04-05T06:39:00.954Z,52.12
2023-04-05T06:41:28.037Z,52.92
2023-04-05T06:43:55.625Z,52.58
2023-04-05T06:46:22.516Z,51.68
2023-04-05T06:48:50.091Z,51.36
2023-04-05T06:51:17.046Z,51.91
2023-04-05T06:53:43.713Z,50.69
2023-04-05T06:56:10.897Z,50.94
2023-04-05T06:58:37.527Z,51.43
2023-04-05T07:01:04.337Z,51.46
2023-04-05T07:03:31.095Z,50.56
2023-04-05T07:05:59.418Z,50.62
2023-04-05T07:08:27.587Z,49.79
2023-04-05T07:10:54.613Z,47.90
2023-04-05T07:13:22.768Z,47.30
2023-04-05T07:15:49.259Z,46.81
2023-04-05T07:18:15.950Z,45.12
2023-04-05T07:20:43.168Z,44.62
2023-04-05T07:23:10.020Z,42.51
2023-04-05T07:25:36.616Z,43.45
2023-04-05T07:28:03.146Z,43.61
2023-04-05T07:30:31.812Z,45.05
2023-04-05T07:32:58.664Z,43.65
2023-04-05T07:35:25.461Z,42.89
2023-04-05T07:37:52.472Z,42.39
2023-04-05T07:40:19.142Z,42.11
2023-04-05T07:42:45.875Z,41.12
2023-04-05T07:45:12.513Z,38.94
2023-04-05T07:47:39.051Z,38.99
2023-04-05T07:50:07.145Z,37.78
2023-04-05T07:52:34.420Z,37.54
2023-04-05T07:55:00.834Z,36.83
2023-04-05T07:57:27.477Z,37.29
2023-04-05T07:59:55.625Z,36.47
2023-04-05T08:02:22.096Z,36.52
2023-04-05T08:04:48.631Z,36.56
2023-04-05T08:07:15.179Z,34.82
2023-04-05T08:09:41.670Z,33.13
2023-04-05T08:12:08.300Z,33.50
2023-04-05T08:14:34.798Z,32.58
2023-04-05T08:17:01.307Z,32.83
2023-04-05T08:19:27.933Z,32.57
2023-04-05T08:21:54.488Z,32.38
2023-04-05T08:24:21.105Z,31.06
2023-04-05T08:26:47.663Z,30.91
2023-04-05T08:29:14.229Z,29.48
2023-04-05T08:31:40.851Z,31.09
2023-04-05T08:34:08.454Z,30.23
2023-04-05T08:36:35.105Z,29.77
2023-04-05T08:39:01.614Z,28.75
2023-04-05T08:41:36.368Z,29.41
2023-04-05T08:44:07.060Z,29.05
2023-04-05T08:46:35.448Z,29.22
2023-04-05T08:49:11.444Z,28.63
2023-04-05T08:51:41.312Z,31.61
2023-04-05T08:54:07.978Z,29.88
2023-04-05T08:56:36.330Z,30.78
2023-04-05T08:59:15.942Z,30.38
2023-04-05T09:01:48.866Z,27.98
2023-04-05T09:04:27.329Z,28.30
2023-04-05T09:06:57.698Z,28.36
2023-04-05T09:09:25.383Z,29.02
2023-04-05T09:11:52.274Z,31.09
2023-04-05T09:14:21.303Z,28.93
2023-04-05T09:16:48.040Z,30.94
2023-04-05T09:19:14.797Z,29.21
2023-04-05T09:22:01.525Z,28.35
2023-04-05T09:24:41.186Z,26.86
2023-04-05T09:27:13.247Z,27.86
2023-04-05T09:29:41.556Z,30.75
2023-04-05T09:32:09.907Z,27.05
2023-04-05T09:34:37.555Z,26.51
2023-04-05T09:37:13.438Z,25.90
2023-04-05T09:39:40.362Z,27.80
2023-04-05T09:42:13.270Z,26.51
2023-04-05T09:45:07.237Z,26.43
2023-04-05T09:47:36.629Z,26.94
2023-04-05T09:50:23.519Z,25.14
2023-04-05T09:52:51.612Z,24.64
2023-04-05T09:55:28.853Z,26.22
2023-04-05T09:57:55.347Z,24.46
2023-04-05T10:00:23.029Z,23.69
2023-04-05T10:02:53.949Z,25.77
2023-04-05T10:05:24.493Z,25.32
2023-04-05T10:07:52.349Z,24.32
2023-04-05T10:10:20.465Z,25.90
2023-04-05T10:12:48.162Z,25.60
2023-04-05T10:15:16.239Z,24.40
2023-04-05T10:17:58.579Z,23.31
2023-04-05T10:20:25.381Z,24.50
2023-04-05T10:22:51.764Z,23.74
2023-04-05T10:25:52.235Z,23.67
2023-04-05T10:28:32.992Z,23.08
2023-04-05T10:31:37.236Z,22.78
2023-04-05T10:34:07.248Z,23.32
2023-04-05T10:36:49.790Z,22.38
2023-04-05T10:39:26.242Z,24.30
2023-04-05T10:42:05.786Z,24.82
2023-04-05T10:44:34.005Z,23.02
2023-04-05T10:47:01.313Z,23.17
2023-04-05T10:49:49.341Z,24.02
2023-04-05T10:52:18.014Z,22.31
2023-04-05T10:54:44.605Z,23.25
2023-04-05T10:57:12.515Z,24.38
2023-04-05T10:59:46.283Z,23.32
2023-04-05T11:02:14.397Z,22.60
2023-04-05T11:04:42.375Z,22.20
2023-04-05T11:07:17.558Z,21.70
2023-04-05T11:10:00.190Z,21.25
2023-04-05T11:12:48.454Z,22.12
2023-04-05T11:15:33.296Z,21.22
2023-04-05T11:18:20.488Z,21.97
2023-04-05T11:20:52.375Z,21.18
2023-04-05T11:23:20.750Z,21.70
2023-04-05T11:25:51.383Z,22.64
2023-04-05T11:28:30.103Z,22.06
2023-04-05T11:30:58.570Z,21.48
2023-04-05T11:33:39.251Z,21.48
2023-04-05T11:36:06.379Z,21.90
2023-04-05T11:38:32.994Z,22.55
2023-04-05T11:41:21.095Z,25.01
2023-04-05T11:43:48.051Z,23.15
2023-04-05T11:46:18.366Z,22.03
2023-04-05T11:48:51.078Z,22.77
2023-04-05T11:51:20.881Z,21.55
2023-04-05T11:53:47.464Z,21.16
2023-04-05T11:56:16.038Z,22.04
2023-04-05T11:58:42.915Z,21.07
2023-04-05T12:01:09.552Z,20.36
2023-04-05T12:03:37.394Z,20.61
2023-04-05T12:06:05.647Z,20.46
2023-04-05T12:08:42.551Z,20.15
2023-04-05T12:11:13.342Z,22.13
2023-04-05T12:13:39.993Z,20.97
2023-04-05T12:16:08.355Z,20.16
2023-04-05T12:18:37.003Z,20.42
2023-04-05T12:21:08.981Z,20.58
2023-04-05T12:23:37.383Z,22.39
2023-04-05T12:26:06.582Z,20.29
2023-04-05T12:28:52.931Z,21.11
2023-04-05T12:31:41.953Z,24.43
2023-04-05T12:34:09.908Z,21.04
2023-04-05T12:36:37.477Z,21.46
2023-04-05T12:39:07.856Z,20.11
2023-04-05T12:41:34.896Z,20.13
2023-04-05T12:44:28.558Z,20.72
2023-04-05T12:47:03.032Z,21.07
2023-04-05T12:49:29.557Z,21.79
2023-04-05T12:52:01.916Z,20.30
2023-04-05T12:54:28.709Z,20.85
2023-04-05T12:56:55.595Z,20.28
2023-04-05T12:59:23.196Z,20.24
2023-04-05T13:01:50.477Z,20.61
2023-04-05T13:04:17.295Z,20.32
2023-04-05T13:06:47.200Z,19.71
2023-04-05T13:09:14.117Z,19.89
2023-04-05T13:11:40.723Z,19.75
2023-04-05T13:14:07.449Z,20.49
2023-04-05T13:16:34.058Z,20.23
2023-04-05T13:19:00.733Z,20.57
2023-04-05T13:21:27.342Z,19.64
2023-04-05T13:23:53.896Z,19.83
2023-04-05T13:26:21.092Z,19.94
2023-04-05T13:28:47.653Z,23.19
2023-04-05T13:31:15.895Z,21.71
2023-04-05T13:33:42.905Z,21.60
2023-04-05T13:36:11.009Z,21.48
2023-04-05T13:38:37.814Z,20.94
2023-04-05T13:41:04.604Z,22.53
2023-04-05T13:43:31.284Z,21.51
2023-04-05T13:45:58.004Z,21.30
2023-04-05T13:48:24.477Z,21.06
2023-04-05T13:50:51.030Z,20.85
2023-04-05T13:53:17.483Z,22.42
2023-04-05T13:55:44.088Z,21.25
2023-04-05T13:58:10.933Z,21.13
2023-04-05T14:00:40.194Z,21.76
2023-04-05T14:03:07.012Z,21.69
2023-04-05T14:05:33.674Z,21.92
2023-04-05T14:08:00.139Z,21.78
2023-04-05T14:10:26.619Z,21.78
2023-04-05T14:12:53.108Z,21.84
2023-04-05T14:15:19.707Z,24.87
2023-04-05T14:17:46.259Z,23.84
2023-04-05T14:20:12.717Z,24.51
2023-04-05T14:22:39.204Z,23.65
2023-04-05T14:25:08.067Z,24.68
2023-04-05T14:27:35.988Z,25.78
2023-04-05T14:30:02.526Z,25.19
2023-04-05T14:32:30.872Z,25.05
2023-04-05T14:34:58.864Z,25.85
2023-04-05T14:37:25.386Z,26.05
2023-04-05T14:39:51.908Z,25.93
2023-04-05T14:42:18.391Z,27.51
2023-04-05T14:44:44.869Z,25.88
2023-04-05T14:47:11.379Z,27.07
2023-04-05T14:49:37.878Z,27.66
2023-04-05T14:52:04.628Z,26.81
2023-04-05T14:54:31.137Z,25.48
2023-04-05T14:56:57.648Z,27.79
2023-04-05T14:59:24.208Z,29.33
2023-04-05T15:01:50.757Z,29.14
2023-04-05T15:04:17.450Z,29.25
2023-04-05T15:06:44.162Z,28.29
2023-04-05T15:09:10.737Z,29.10
2023-04-05T15:11:39.215Z,28.86
2023-04-05T15:14:08.554Z,29.74
2023-04-05T15:16:38.088Z,29.56
2023-04-05T15:19:04.654Z,29.94
2023-04-05T15:21:31.197Z,29.06
2023-04-05T15:23:57.701Z,29.56
2023-04-05T15:26:24.147Z,30.20
2023-04-05T15:28:50.598Z,30.75
2023-04-05T15:31:17.245Z,30.29
2023-04-05T15:33:43.793Z,30.70
2023-04-05T15:36:10.668Z,30.36
2023-04-05T15:38:37.178Z,30.78
2023-04-05T15:41:03.759Z,30.64
2023-04-05T15:43:31.463Z,30.57
2023-04-05T15:45:57.973Z,31.61
2023-04-05T15:48:24.492Z,30.58
2023-04-05T15:50:51.183Z,29.90
2023-04-05T15:53:17.760Z,29.56
2023-04-05T15:55:44.283Z,29.47
2023-04-05T15:58:11.095Z,28.56
2023-04-05T16:00:37.946Z,29.00
2023-04-05T16:03:04.601Z,28.30
2023-04-05T16:05:31.335Z,27.85
2023-04-05T16:07:57.876Z,29.13
2023-04-05T16:10:26.542Z,27.25
2023-04-05T16:12:54.404Z,27.44
2023-04-05T16:15:21.030Z,27.96
2023-04-05T16:17:47.504Z,28.62
2023-04-05T16:20:14.013Z,28.68
2023-04-05T16:22:41.469Z,28.13
2023-04-05T16:25:08.161Z,28.50
2023-04-05T16:27:35.977Z,28.51
2023-04-05T16:30:02.454Z,28.07
2023-04-05T16:32:28.944Z,29.21
2023-04-05T16:34:55.472Z,28.77
2023-04-05T16:37:22.074Z,28.73
2023-04-05T16:39:48.566Z,28.26
2023-04-05T16:42:15.416Z,30.53
2023-04-05T16:44:41.932Z,30.72
2023-04-05T16:47:08.493Z,29.98
2023-04-05T16:49:35.195Z,30.92
2023-04-05T16:52:01.740Z,31.12
2023-04-05T16:54:28.234Z,31.63
2023-04-05T16:56:54.881Z,31.18
2023-04-05T16:59:21.414Z,31.66
2023-04-05T17:01:48.075Z,31.07
2023-04-05T17:04:14.746Z,31.20
2023-04-05T17:06:41.323Z,33.06
2023-04-05T17:09:08.019Z,32.81
2023-04-05T17:11:34.563Z,33.30
2023-04-05T17:14:01.177Z,33.01
2023-04-05T17:16:27.792Z,32.03
2023-04-05T17:18:54.449Z,32.25
2023-04-05T17:21:21.144Z,33.73
2023-04-05T17:23:47.667Z,33.93
2023-04-05T17:26:14.374Z,32.71
2023-04-05T17:28:40.833Z,33.11
2023-04-05T17:31:07.477Z,33.27
2023-04-05T17:33:34.026Z,34.39
2023-04-05T17:36:02.011Z,33.54
2023-04-05T17:38:28.554Z,35.03
2023-04-05T17:40:57.648Z,35.34
2023-04-05T17:43:24.497Z,35.14
2023-04-05T17:45:51.722Z,35.97
2023-04-05T17:48:18.933Z,35.33
2023-04-05T17:50:46.697Z,35.34
2023-04-05T17:53:15.127Z,35.76
2023-04-05T17:55:41.961Z,35.83
2023-04-05T17:58:08.462Z,37.32
2023-04-05T18:00:35.017Z,37.75
2023-04-05T18:03:06.021Z,37.92
2023-04-05T18:05:34.443Z,38.85
2023-04-05T18:08:01.252Z,39.75
2023-04-05T18:10:28.112Z,40.07
2023-04-05T18:12:54.702Z,40.37
2023-04-05T18:15:21.283Z,40.52
2023-04-05T18:17:47.865Z,40.53
2023-04-05T18:20:14.653Z,40.72
2023-04-05T18:22:41.142Z,41.91
2023-04-05T18:25:11.156Z,41.68
2023-04-05T18:27:38.964Z,42.16
2023-04-05T18:30:06.686Z,42.30
2023-04-05T18:32:33.234Z,44.26
2023-04-05T18:34:59.837Z,43.18
2023-04-05T18:37:26.383Z,42.41
2023-04-05T18:39:52.927Z,43.02
2023-04-05T18:42:19.477Z,43.12
2023-04-05T18:44:46.010Z,42.49
2023-04-05T18:47:12.490Z,41.84
2023-04-05T18:49:38.926Z,42.77
2023-04-05T18:52:05.365Z,43.33
2023-04-05T18:54:31.792Z,43.93
2023-04-05T18:56:58.291Z,45.23
2023-04-05T18:59:24.801Z,45.42
2023-04-05T19:01:51.495Z,46.39
2023-04-05T19:04:18.066Z,45.83
2023-04-05T19:06:44.538Z,47.12
2023-04-05T19:09:11.931Z,47.77
2023-04-05T19:11:38.656Z,48.87
2023-04-05T19:14:05.165Z,47.01
2023-04-05T19:16:31.768Z,46.87
2023-04-05T19:18:58.345Z,46.73
2023-04-05T19:21:24.833Z,46.61
2023-04-05T19:23:51.420Z,47.12
2023-04-05T19:26:18.554Z,47.15
2023-04-05T19:28:46.019Z,47.01
2023-04-05T19:31:12.879Z,46.87
2023-04-05T19:33:39.393Z,48.03
2023-04-05T19:36:06.339Z,47.80
2023-04-05T19:38:33.260Z,47.99
2023-04-05T19:41:00.399Z,47.72
2023-04-05T19:43:27.163Z,48.09
2023-04-05T19:45:58.821Z,48.52
2023-04-05T19:48:37.315Z,48.22
2023-04-05T19:51:09.052Z,47.33
2023-04-05T19:53:42.963Z,47.70
2023-04-05T19:56:12.192Z,47.17
2023-04-05T19:58:38.984Z,46.61
2023-04-05T20:01:07.117Z,47.14
2023-04-05T20:03:40.923Z,47.56
2023-04-05T20:06:16.936Z,48.17
2023-04-05T20:08:45.810Z,47.03
2023-04-05T20:11:17.784Z,48.02
2023-04-05T20:14:11.055Z,48.85
2023-04-05T20:16:38.141Z,48.96
2023-04-05T20:19:09.833Z,48.74
2023-04-05T20:21:40.311Z,48.95
2023-04-05T20:24:13.041Z,49.88
2023-04-05T20:26:39.622Z,49.45
2023-04-05T20:29:09.192Z,49.91
2023-04-05T20:31:39.971Z,49.69
2023-04-05T20:34:14.750Z,49.83
2023-04-05T20:36:47.268Z,49.34
2023-04-05T20:39:13.806Z,49.58
2023-04-05T20:41:40.934Z,51.48
2023-04-05T20:44:07.512Z,50.83
2023-04-05T20:46:34.393Z,51.79
2023-04-05T20:49:01.191Z,51.21
2023-04-05T20:51:28.012Z,52.04
2023-04-05T20:53:55.460Z,50.97
2023-04-05T20:56:22.050Z,50.41
2023-04-05T20:58:49.211Z,50.39
2023-04-05T21:01:15.805Z,50.49
2023-04-05T21:03:42.781Z,50.75
2023-04-05T21:06:10.304Z,51.08
2023-04-05T21:08:38.258Z,51.50
2023-04-05T21:11:05.966Z,51.31
2023-04-05T21:13:33.351Z,52.55
2023-04-05T21:15:59.976Z,52.56
2023-04-05T21:18:27.125Z,51.95
2023-04-05T21:20:54.296Z,49.92
2023-04-05T21:23:23.009Z,50.87
2023-04-05T21:25:50.259Z,50.93
2023-04-05T21:28:16.861Z,50.76
2023-04-05T21:30:44.106Z,50.43
2023-04-05T21:33:11.576Z,50.42
2023-04-05T21:35:38.342Z,51.32
2023-04-05T21:38:05.592Z,51.69
2023-04-05T21:40:32.642Z,51.90
2023-04-05T21:42:59.486Z,52.58
2023-04-05T21:45:26.464Z,53.58
2023-04-05T21:47:53.406Z,53.10
2023-04-05T21:50:20.417Z,53.01
2023-04-05T21:52:47.084Z,53.35
2023-04-05T21:55:13.800Z,53.97
2023-04-05T21:57:40.290Z,53.92
2023-04-05T22:00:11.064Z,54.34
2023-04-05T22:02:40.812Z,54.45
2023-04-05T22:05:08.344Z,55.55
2023-04-05T22:07:35.880Z,54.96
2023-04-05T22:10:03.611Z,55.96
2023-04-05T22:12:30.604Z,55.71
2023-04-05T22:14:57.177Z,56.72
2023-04-05T22:17:23.782Z,56.55
2023-04-05T22:19:50.470Z,56.90
2023-04-05T22:22:17.273Z,56.80
2023-04-05T22:24:44.057Z,57.22
2023-04-05T22:27:11.573Z,57.80
2023-04-05T22:29:38.400Z,57.29
2023-04-05T22:32:05.352Z,58.82
2023-04-05T22:34:31.968Z,58.84
2023-04-05T22:36:58.506Z,58.60
2023-04-05T22:39:25.035Z,59.66
2023-04-05T22:41:51.579Z,59.76
2023-04-05T22:44:18.138Z,60.72
2023-04-05T22:46:44.741Z,59.93
2023-04-05T22:49:11.180Z,59.90
2023-04-05T22:51:37.705Z,60.77
2023-04-05T22:54:04.198Z,62.23
2023-04-05T22:56:31.535Z,61.84
2023-04-05T22:58:58.218Z,62.36
2023-04-05T23:01:24.987Z,62.63
2023-04-05T23:03:51.532Z,61.32
2023-04-05T23:06:18.099Z,61.78
2023-04-05T23:08:44.639Z,62.55
2023-04-05T23:11:11.110Z,62.17
2023-04-05T23:13:37.658Z,62.49
2023-04-05T23:16:04.597Z,62.27
2023-04-05T23:18:31.190Z,62.81
2023-04-05T23:20:57.684Z,62.86
2023-04-05T23:23:24.199Z,61.89
2023-04-05T23:25:51.126Z,62.31
2023-04-05T23:28:17.617Z,62.40
2023-04-05T23:30:44.203Z,62.26
2023-04-05T23:33:12.899Z,61.86
2023-04-05T23:35:40.557Z,61.85
2023-04-05T23:38:07.341Z,62.03
2023-04-05T23:40:33.916Z,62.05
2023-04-05T23:43:00.676Z,62.74
2023-04-05T23:45:27.568Z,62.71
2023-04-05T23:47:55.485Z,63.37
2023-04-05T23:50:22.114Z,63.27
2023-04-05T23:52:48.649Z,63.34
2023-04-05T23:55:15.633Z,63.92
2023-04-05T23:57:42.162Z,64.71
